createdAt,value
2023-04-22T00:00:09.799Z,17.00
2023-04-22T00:15:14.320Z,16.80
2023-04-22T00:30:18.807Z,16.80
2023-04-22T00:45:23.624Z,16.70
2023-04-22T01:00:29.182Z,16.60
2023-04-22T01:15:34.032Z,16.60
2023-04-22T01:30:39.392Z,16.30
2023-04-22T01:45:45.291Z,16.30
2023-04-22T02:00:49.808Z,16.30
2023-04-22T02:15:54.348Z,16.10
2023-04-22T02:30:59.385Z,16.10
2023-04-22T02:46:04.058Z,16.00
2023-04-22T03:01:08.812Z,16.00
2023-04-22T03:16:13.548Z,16.10
2023-04-22T03:31:18.916Z,16.00
2023-04-22T03:46:24.838Z,16.00
2023-04-22T04:01:37.584Z,15.80
2023-04-22T04:16:45.420Z,15.70
2023-04-22T04:31:56.527Z,16.00
2023-04-22T04:47:03.092Z,15.90
2023-04-22T05:02:07.887Z,15.80
2023-04-22T05:17:13.089Z,15.90
2023-04-22T05:32:18.246Z,15.70
2023-04-22T05:47:23.156Z,15.70
2023-04-22T06:02:29.692Z,15.80
2023-04-22T06:17:35.173Z,15.70
2023-04-22T06:32:40.368Z,15.80
2023-04-22T06:47:45.097Z,15.70
2023-04-22T07:02:56.911Z,15.80
2023-04-22T07:18:02.386Z,15.80
2023-04-22T07:33:06.713Z,15.80
2023-04-22T07:48:11.427Z,15.90
2023-04-22T08:03:16.129Z,15.90
2023-04-22T08:18:20.757Z,16.00
2023-04-22T08:33:27.129Z,16.10
2023-04-22T08:48:33.226Z,16.10
2023-04-22T09:03:40.454Z,16.00
2023-04-22T09:18:46.004Z,15.90
2023-04-22T09:33:52.577Z,15.80
2023-04-22T09:48:58.641Z,15.50
2023-04-22T10:04:03.307Z,14.90
2023-04-22T10:19:10.551Z,14.90
2023-04-22T10:34:16.498Z,15.30
2023-04-22T10:49:22.265Z,15.30
2023-04-22T11:04:26.682Z,14.80
2023-04-22T11:19:31.539Z,15.20
2023-04-22T11:34:36.043Z,15.40
2023-04-22T11:49:40.829Z,15.40
2023-04-22T12:04:45.720Z,15.90
2023-04-22T12:19:50.391Z,15.80
2023-04-22T12:34:54.940Z,15.70
2023-04-22T12:50:01.340Z,15.40
2023-04-22T13:05:06.039Z,15.50
2023-04-22T13:20:14.089Z,16.50
2023-04-22T13:35:19.133Z,17.30
2023-04-22T13:50:24.204Z,18.50
2023-04-22T14:05:28.671Z,19.70
2023-04-22T14:20:33.104Z,21.70
2023-04-22T14:35:38.446Z,20.80
2023-04-22T14:50:44.452Z,20.70
2023-04-22T15:05:49.851Z,20.00
2023-04-22T15:20:54.297Z,20.70
2023-04-22T15:35:58.821Z,20.00
2023-04-22T15:51:03.345Z,20.50
2023-04-22T16:06:08.199Z,20.60
2023-04-22T16:21:12.850Z,22.00
2023-04-22T16:36:17.346Z,21.90
2023-04-22T16:51:21.789Z,22.50
2023-04-22T17:06:27.986Z,20.60
2023-04-22T17:21:34.257Z,21.50
2023-04-22T17:36:38.762Z,20.90
2023-04-22T17:51:43.633Z,21.50
2023-04-22T18:06:48.223Z,21.30
2023-04-22T18:21:59.639Z,20.20
2023-04-22T18:37:04.649Z,19.70
2023-04-22T18:52:09.347Z,19.40
2023-04-22T19:07:13.925Z,19.10
2023-04-22T19:22:20.937Z,18.70
2023-04-22T19:37:26.020Z,19.00
2023-04-22T19:52:31.061Z,19.00
2023-04-22T20:07:36.779Z,18.80
2023-04-22T20:22:42.384Z,18.80
2023-04-22T20:37:50.834Z,18.60
2023-04-22T20:52:55.951Z,18.40
2023-04-22T21:08:01.686Z,18.20
2023-04-22T21:23:07.851Z,18.00
2023-04-22T21:38:12.447Z,17.70
2023-04-22T21:53:19.508Z,17.90
2023-04-22T22:08:24.032Z,17.70
2023-04-22T22:23:28.421Z,17.60
2023-04-22T22:38:32.910Z,17.40
2023-04-22T22:53:37.298Z,17.30
2023-04-22T23:08:41.978Z,16.70
2023-04-22T23:23:46.836Z,16.60
2023-04-22T23:38:51.469Z,16.60
2023-04-22T23:53:55.966Z,16.60
